sensor_id;sensor_type;location;lat;lon;timestamp;P1;durP1;ratioP1;P2;durP2;ratioP2
11398;SDS011;5755;48.116;11.608;2022-09-12T00:00:26;6.80;;;2.70;;
11398;SDS011;5755;48.116;11.608;2022-09-12T00:02:57;3.42;;;2.47;;
11398;SDS011;5755;48.116;11.608;2022-09-12T00:05:24;7.80;;;3.03;;
11398;SDS011;5755;48.116;11.608;2022-09-12T00:07:53;2.95;;;2.75;;
11398;SDS011;5755;48.116;11.608;2022-09-12T00:10:19;4.85;;;2.67;;
11398;SDS011;5755;48.116;11.608;2022-09-12T00:12:48;5.15;;;2.88;;
11398;SDS011;5755;48.116;11.608;2022-09-12T00:15:26;2.97;;;2.67;;
11398;SDS011;5755;48.116;11.608;2022-09-12T00:17:56;4.57;;;3.25;;
11398;SDS011;5755;48.116;11.608;2022-09-12T00:20:26;3.65;;;2.80;;
11398;SDS011;5755;48.116;11.608;2022-09-12T00:22:53;3.33;;;2.63;;
11398;SDS011;5755;48.116;11.608;2022-09-12T00:25:20;2.88;;;2.58;;
11398;SDS011;5755;48.116;11.608;2022-09-12T00:27:48;4.35;;;2.60;;
11398;SDS011;5755;48.116;11.608;2022-09-12T00:30:15;3.45;;;2.88;;
11398;SDS011;5755;48.116;11.608;2022-09-12T00:32:42;2.95;;;2.60;;
11398;SDS011;5755;48.116;11.608;2022-09-12T00:35:14;3.80;;;2.70;;
11398;SDS011;5755;48.116;11.608;2022-09-12T00:37:41;2.95;;;2.63;;
11398;SDS011;5755;48.116;11.608;2022-09-12T00:40:08;4.53;;;3.05;;
11398;SDS011;5755;48.116;11.608;2022-09-12T00:42:36;3.30;;;2.83;;
11398;SDS011;5755;48.116;11.608;2022-09-12T00:45:04;4.45;;;2.85;;
11398;SDS011;5755;48.116;11.608;2022-09-12T00:47:36;3.63;;;2.90;;
11398;SDS011;5755;48.116;11.608;2022-09-12T00:50:10;2.95;;;2.60;;
11398;SDS011;5755;48.116;11.608;2022-09-12T00:52:39;3.00;;;2.70;;
11398;SDS011;5755;48.116;11.608;2022-09-12T00:55:15;3.75;;;2.90;;
11398;SDS011;5755;48.116;11.608;2022-09-12T00:57:49;2.90;;;2.63;;
11398;SDS011;5755;48.116;11.608;2022-09-12T01:00:23;4.22;;;3.03;;
11398;SDS011;5755;48.116;11.608;2022-09-12T01:03:03;4.47;;;3.00;;
11398;SDS011;5755;48.116;11.608;2022-09-12T01:05:33;3.00;;;2.70;;
11398;SDS011;5755;48.116;11.608;2022-09-12T01:08:02;2.75;;;2.50;;
11398;SDS011;5755;48.116;11.608;2022-09-12T01:10:30;4.07;;;2.72;;
11398;SDS011;5755;48.116;11.608;2022-09-12T01:12:58;3.92;;;2.92;;
11398;SDS011;5755;48.116;11.608;2022-09-12T01:15:26;3.72;;;2.78;;
11398;SDS011;5755;48.116;11.608;2022-09-12T01:18:00;3.65;;;2.72;;
11398;SDS011;5755;48.116;11.608;2022-09-12T01:20:36;4.32;;;2.80;;
11398;SDS011;5755;48.116;11.608;2022-09-12T01:26:48;2.70;;;2.50;;
11398;SDS011;5755;48.116;11.608;2022-09-12T01:33:01;2.60;;;2.40;;
11398;SDS011;5755;48.116;11.608;2022-09-12T01:35:45;3.20;;;2.30;;
11398;SDS011;5755;48.116;11.608;2022-09-12T01:38:21;4.90;;;2.60;;
11398;SDS011;5755;48.116;11.608;2022-09-12T01:40:55;3.20;;;2.90;;
11398;SDS011;5755;48.116;11.608;2022-09-12T01:43:29;4.57;;;2.85;;
11398;SDS011;5755;48.116;11.608;2022-09-12T01:46:00;2.88;;;2.58;;
11398;SDS011;5755;48.116;11.608;2022-09-12T01:48:35;5.47;;;2.70;;
11398;SDS011;5755;48.116;11.608;2022-09-12T01:51:06;2.90;;;2.60;;
11398;SDS011;5755;48.116;11.608;2022-09-12T01:53:40;2.70;;;2.50;;
11398;SDS011;5755;48.116;11.608;2022-09-12T01:56:21;4.25;;;2.70;;
11398;SDS011;5755;48.116;11.608;2022-09-12T01:58:51;2.63;;;2.40;;
11398;SDS011;5755;48.116;11.608;2022-09-12T02:01:23;3.53;;;2.50;;
11398;SDS011;5755;48.116;11.608;2022-09-12T02:03:56;3.08;;;2.63;;
11398;SDS011;5755;48.116;11.608;2022-09-12T02:06:34;2.63;;;2.22;;
11398;SDS011;5755;48.116;11.608;2022-09-12T02:09:05;4.57;;;2.65;;
11398;SDS011;5755;48.116;11.608;2022-09-12T02:11:37;3.40;;;2.58;;
11398;SDS011;5755;48.116;11.608;2022-09-12T02:14:08;2.80;;;2.60;;
11398;SDS011;5755;48.116;11.608;2022-09-12T02:16:39;3.53;;;2.70;;
11398;SDS011;5755;48.116;11.608;2022-09-12T02:19:12;5.60;;;2.58;;
11398;SDS011;5755;48.116;11.608;2022-09-12T02:24:39;3.17;;;2.42;;
11398;SDS011;5755;48.116;11.608;2022-09-12T02:27:09;3.58;;;2.40;;
11398;SDS011;5755;48.116;11.608;2022-09-12T02:29:39;2.88;;;2.20;;
11398;SDS011;5755;48.116;11.608;2022-09-12T02:32:10;2.72;;;2.53;;
11398;SDS011;5755;48.116;11.608;2022-09-12T02:34:45;4.18;;;2.55;;
11398;SDS011;5755;48.116;11.608;2022-09-12T02:37:31;6.15;;;2.33;;
11398;SDS011;5755;48.116;11.608;2022-09-12T02:40:09;5.05;;;2.67;;
11398;SDS011;5755;48.116;11.608;2022-09-12T02:42:39;4.22;;;2.22;;
11398;SDS011;5755;48.116;11.608;2022-09-12T02:45:15;3.92;;;2.47;;
11398;SDS011;5755;48.116;11.608;2022-09-12T02:47:46;2.50;;;2.30;;
11398;SDS011;5755;48.116;11.608;2022-09-12T02:50:17;3.97;;;2.60;;
11398;SDS011;5755;48.116;11.608;2022-09-12T02:52:51;2.58;;;2.13;;
11398;SDS011;5755;48.116;11.608;2022-09-12T02:55:27;6.43;;;2.75;;
11398;SDS011;5755;48.116;11.608;2022-09-12T02:57:55;2.13;;;2.03;;
11398;SDS011;5755;48.116;11.608;2022-09-12T03:00:27;5.18;;;2.30;;
11398;SDS011;5755;48.116;11.608;2022-09-12T03:03:08;3.78;;;2.55;;
11398;SDS011;5755;48.116;11.608;2022-09-12T03:05:51;2.88;;;2.47;;
11398;SDS011;5755;48.116;11.608;2022-09-12T03:08:46;3.20;;;2.45;;
11398;SDS011;5755;48.116;11.608;2022-09-12T03:11:27;5.00;;;2.00;;
11398;SDS011;5755;48.116;11.608;2022-09-12T03:14:08;2.60;;;2.40;;
11398;SDS011;5755;48.116;11.608;2022-09-12T03:16:45;7.70;;;2.30;;
11398;SDS011;5755;48.116;11.608;2022-09-12T03:19:22;2.40;;;2.20;;
11398;SDS011;5755;48.116;11.608;2022-09-12T03:22:01;4.05;;;2.40;;
11398;SDS011;5755;48.116;11.608;2022-09-12T03:24:36;2.88;;;2.20;;
11398;SDS011;5755;48.116;11.608;2022-09-12T03:27:09;2.47;;;2.20;;
11398;SDS011;5755;48.116;11.608;2022-09-12T03:29:51;2.58;;;2.38;;
11398;SDS011;5755;48.116;11.608;2022-09-12T03:32:18;3.97;;;2.30;;
11398;SDS011;5755;48.116;11.608;2022-09-12T03:35:03;2.50;;;2.30;;
11398;SDS011;5755;48.116;11.608;2022-09-12T03:37:40;3.60;;;2.00;;
11398;SDS011;5755;48.116;11.608;2022-09-12T03:40:08;2.35;;;2.10;;
11398;SDS011;5755;48.116;11.608;2022-09-12T03:42:39;3.17;;;2.30;;
11398;SDS011;5755;48.116;11.608;2022-09-12T03:45:09;3.47;;;2.15;;
11398;SDS011;5755;48.116;11.608;2022-09-12T03:47:36;3.65;;;2.40;;
11398;SDS011;5755;48.116;11.608;2022-09-12T03:50:04;3.35;;;2.20;;
11398;SDS011;5755;48.116;11.608;2022-09-12T03:52:31;2.50;;;2.30;;
11398;SDS011;5755;48.116;11.608;2022-09-12T03:55:00;2.22;;;2.03;;
11398;SDS011;5755;48.116;11.608;2022-09-12T03:57:26;2.55;;;2.35;;
11398;SDS011;5755;48.116;11.608;2022-09-12T03:59:53;3.22;;;2.30;;
11398;SDS011;5755;48.116;11.608;2022-09-12T04:02:20;2.53;;;2.10;;
11398;SDS011;5755;48.116;11.608;2022-09-12T04:04:51;2.78;;;2.20;;
11398;SDS011;5755;48.116;11.608;2022-09-12T04:07:33;4.05;;;2.00;;
11398;SDS011;5755;48.116;11.608;2022-09-12T04:10:05;4.88;;;2.20;;
11398;SDS011;5755;48.116;11.608;2022-09-12T04:12:32;3.03;;;2.00;;
11398;SDS011;5755;48.116;11.608;2022-09-12T04:15:03;2.65;;;2.35;;
11398;SDS011;5755;48.116;11.608;2022-09-12T04:17:33;4.57;;;1.80;;
11398;SDS011;5755;48.116;11.608;2022-09-12T04:26:17;2.55;;;2.08;;
11398;SDS011;5755;48.116;11.608;2022-09-12T04:28:45;4.72;;;2.17;;
11398;SDS011;5755;48.116;11.608;2022-09-12T04:31:14;2.55;;;1.90;;
11398;SDS011;5755;48.116;11.608;2022-09-12T04:33:45;5.38;;;2.22;;
11398;SDS011;5755;48.116;11.608;2022-09-12T04:36:27;2.78;;;2.40;;
11398;SDS011;5755;48.116;11.608;2022-09-12T04:47:39;2.30;;;2.05;;
11398;SDS011;5755;48.116;11.608;2022-09-12T04:50:09;3.65;;;2.10;;
11398;SDS011;5755;48.116;11.608;2022-09-12T04:52:47;6.13;;;2.35;;
11398;SDS011;5755;48.116;11.608;2022-09-12T04:55:21;2.92;;;2.30;;
11398;SDS011;5755;48.116;11.608;2022-09-12T05:00:45;5.70;;;2.50;;
11398;SDS011;5755;48.116;11.608;2022-09-12T05:03:12;2.90;;;2.38;;
11398;SDS011;5755;48.116;11.608;2022-09-12T05:05:39;3.20;;;2.42;;
11398;SDS011;5755;48.116;11.608;2022-09-12T05:08:15;3.33;;;2.50;;
11398;SDS011;5755;48.116;11.608;2022-09-12T05:17:03;6.32;;;2.70;;
11398;SDS011;5755;48.116;11.608;2022-09-12T05:22:21;3.78;;;2.58;;
11398;SDS011;5755;48.116;11.608;2022-09-12T05:24:48;2.55;;;2.35;;
11398;SDS011;5755;48.116;11.608;2022-09-12T05:32:57;2.70;;;2.50;;
11398;SDS011;5755;48.116;11.608;2022-09-12T05:35:27;4.07;;;2.20;;
11398;SDS011;5755;48.116;11.608;2022-09-12T05:37:57;2.53;;;2.33;;
11398;SDS011;5755;48.116;11.608;2022-09-12T05:40:39;3.28;;;2.00;;
11398;SDS011;5755;48.116;11.608;2022-09-12T05:43:05;3.78;;;2.33;;
11398;SDS011;5755;48.116;11.608;2022-09-12T05:45:34;3.03;;;2.42;;
11398;SDS011;5755;48.116;11.608;2022-09-12T05:48:03;3.90;;;2.65;;
11398;SDS011;5755;48.116;11.608;2022-09-12T05:50:39;9.48;;;2.58;;
11398;SDS011;5755;48.116;11.608;2022-09-12T05:53:09;3.53;;;2.80;;
11398;SDS011;5755;48.116;11.608;2022-09-12T05:58:26;2.90;;;2.60;;
11398;SDS011;5755;48.116;11.608;2022-09-12T06:00:55;6.28;;;2.70;;
11398;SDS011;5755;48.116;11.608;2022-09-12T06:03:26;6.05;;;3.08;;
11398;SDS011;5755;48.116;11.608;2022-09-12T06:05:53;7.03;;;2.80;;
11398;SDS011;5755;48.116;11.608;2022-09-12T06:08:20;2.83;;;2.63;;
11398;SDS011;5755;48.116;11.608;2022-09-12T06:10:47;4.05;;;3.15;;
11398;SDS011;5755;48.116;11.608;2022-09-12T06:13:15;3.17;;;2.70;;
11398;SDS011;5755;48.116;11.608;2022-09-12T06:15:42;3.67;;;2.83;;
11398;SDS011;5755;48.116;11.608;2022-09-12T06:18:10;3.50;;;2.70;;
11398;SDS011;5755;48.116;11.608;2022-09-12T06:20:37;4.15;;;2.40;;
11398;SDS011;5755;48.116;11.608;2022-09-12T06:23:15;3.47;;;3.17;;
11398;SDS011;5755;48.116;11.608;2022-09-12T06:25:45;2.95;;;2.40;;
11398;SDS011;5755;48.116;11.608;2022-09-12T06:28:13;2.53;;;2.33;;
11398;SDS011;5755;48.116;11.608;2022-09-12T06:30:40;5.03;;;2.33;;
11398;SDS011;5755;48.116;11.608;2022-09-12T06:33:07;4.07;;;2.30;;
11398;SDS011;5755;48.116;11.608;2022-09-12T06:35:36;3.08;;;2.30;;
11398;SDS011;5755;48.116;11.608;2022-09-12T06:38:03;2.15;;;1.95;;
11398;SDS011;5755;48.116;11.608;2022-09-12T06:40:31;3.40;;;2.17;;
11398;SDS011;5755;48.116;11.608;2022-09-12T06:43:03;4.20;;;2.30;;
11398;SDS011;5755;48.116;11.608;2022-09-12T06:45:33;6.10;;;2.80;;
11398;SDS011;5755;48.116;11.608;2022-09-12T06:48:00;2.80;;;2.50;;
11398;SDS011;5755;48.116;11.608;2022-09-12T06:50:34;3.88;;;2.30;;
11398;SDS011;5755;48.116;11.608;2022-09-12T06:56:01;4.35;;;2.30;;
11398;SDS011;5755;48.116;11.608;2022-09-12T06:58:39;2.50;;;2.30;;
11398;SDS011;5755;48.116;11.608;2022-09-12T07:01:09;5.60;;;2.40;;
11398;SDS011;5755;48.116;11.608;2022-09-12T07:03:51;2.65;;;2.30;;
11398;SDS011;5755;48.116;11.608;2022-09-12T07:06:22;3.83;;;2.35;;
11398;SDS011;5755;48.116;11.608;2022-09-12T07:08:57;2.30;;;2.10;;
11398;SDS011;5755;48.116;11.608;2022-09-12T07:11:25;4.32;;;2.20;;
11398;SDS011;5755;48.116;11.608;2022-09-12T07:13:54;2.83;;;2.28;;
11398;SDS011;5755;48.116;11.608;2022-09-12T07:16:22;2.47;;;2.08;;
11398;SDS011;5755;48.116;11.608;2022-09-12T07:18:50;2.50;;;2.30;;
11398;SDS011;5755;48.116;11.608;2022-09-12T07:21:22;2.55;;;2.35;;
11398;SDS011;5755;48.116;11.608;2022-09-12T07:23:49;2.70;;;2.13;;
11398;SDS011;5755;48.116;11.608;2022-09-12T07:26:19;8.45;;;2.60;;
11398;SDS011;5755;48.116;11.608;2022-09-12T07:28:49;6.90;;;3.03;;
11398;SDS011;5755;48.116;11.608;2022-09-12T07:31:18;6.28;;;2.58;;
11398;SDS011;5755;48.116;11.608;2022-09-12T07:33:51;5.22;;;2.90;;
11398;SDS011;5755;48.116;11.608;2022-09-12T07:36:19;2.25;;;2.05;;
11398;SDS011;5755;48.116;11.608;2022-09-12T07:38:52;2.85;;;2.33;;
11398;SDS011;5755;48.116;11.608;2022-09-12T07:41:33;2.63;;;2.33;;
11398;SDS011;5755;48.116;11.608;2022-09-12T07:44:00;4.70;;;2.05;;
11398;SDS011;5755;48.116;11.608;2022-09-12T07:46:30;2.00;;;1.80;;
11398;SDS011;5755;48.116;11.608;2022-09-12T07:48:58;4.35;;;2.35;;
11398;SDS011;5755;48.116;11.608;2022-09-12T07:51:26;4.28;;;2.30;;
11398;SDS011;5755;48.116;11.608;2022-09-12T07:54:10;2.90;;;2.70;;
11398;SDS011;5755;48.116;11.608;2022-09-12T07:56:37;5.55;;;2.40;;
11398;SDS011;5755;48.116;11.608;2022-09-12T07:59:07;3.22;;;2.42;;
11398;SDS011;5755;48.116;11.608;2022-09-12T08:01:37;3.72;;;2.20;;
11398;SDS011;5755;48.116;11.608;2022-09-12T08:04:05;2.22;;;2.00;;
11398;SDS011;5755;48.116;11.608;2022-09-12T08:06:33;2.42;;;2.05;;
11398;SDS011;5755;48.116;11.608;2022-09-12T08:09:01;2.08;;;1.98;;
11398;SDS011;5755;48.116;11.608;2022-09-12T08:11:30;3.38;;;2.10;;
11398;SDS011;5755;48.116;11.608;2022-09-12T08:13:57;3.50;;;2.10;;
11398;SDS011;5755;48.116;11.608;2022-09-12T08:16:26;4.63;;;1.90;;
11398;SDS011;5755;48.116;11.608;2022-09-12T08:18:55;1.88;;;1.77;;
11398;SDS011;5755;48.116;11.608;2022-09-12T08:21:22;2.72;;;2.08;;
11398;SDS011;5755;48.116;11.608;2022-09-12T08:23:51;3.92;;;2.10;;
11398;SDS011;5755;48.116;11.608;2022-09-12T08:26:19;1.92;;;1.83;;
11398;SDS011;5755;48.116;11.608;2022-09-12T08:28:47;2.20;;;2.00;;
11398;SDS011;5755;48.116;11.608;2022-09-12T08:31:15;2.35;;;2.00;;
11398;SDS011;5755;48.116;11.608;2022-09-12T08:33:45;2.85;;;1.90;;
11398;SDS011;5755;48.116;11.608;2022-09-12T08:36:12;2.80;;;1.98;;
11398;SDS011;5755;48.116;11.608;2022-09-12T08:38:41;2.80;;;2.00;;
11398;SDS011;5755;48.116;11.608;2022-09-12T08:41:10;2.40;;;2.15;;
11398;SDS011;5755;48.116;11.608;2022-09-12T08:43:55;2.80;;;2.35;;
11398;SDS011;5755;48.116;11.608;2022-09-12T08:46:35;2.60;;;2.40;;
11398;SDS011;5755;48.116;11.608;2022-09-12T08:49:08;3.03;;;2.40;;
11398;SDS011;5755;48.116;11.608;2022-09-12T08:51:39;2.53;;;2.10;;
11398;SDS011;5755;48.116;11.608;2022-09-12T08:54:11;3.92;;;2.13;;
11398;SDS011;5755;48.116;11.608;2022-09-12T08:56:46;2.25;;;2.05;;
11398;SDS011;5755;48.116;11.608;2022-09-12T08:59:15;2.28;;;1.60;;
11398;SDS011;5755;48.116;11.608;2022-09-12T09:01:42;1.73;;;1.60;;
11398;SDS011;5755;48.116;11.608;2022-09-12T09:04:16;1.77;;;1.67;;
11398;SDS011;5755;48.116;11.608;2022-09-12T09:07:12;1.70;;;1.60;;
11398;SDS011;5755;48.116;11.608;2022-09-12T09:10:02;1.52;;;1.42;;
11398;SDS011;5755;48.116;11.608;2022-09-12T09:12:40;3.08;;;2.00;;
11398;SDS011;5755;48.116;11.608;2022-09-12T09:15:38;2.10;;;1.90;;
11398;SDS011;5755;48.116;11.608;2022-09-12T09:18:14;3.13;;;2.10;;
11398;SDS011;5755;48.116;11.608;2022-09-12T09:20:48;2.20;;;2.10;;
11398;SDS011;5755;48.116;11.608;2022-09-12T09:23:19;1.90;;;1.80;;
11398;SDS011;5755;48.116;11.608;2022-09-12T09:25:52;2.45;;;2.25;;
11398;SDS011;5755;48.116;11.608;2022-09-12T09:28:27;2.40;;;2.20;;
11398;SDS011;5755;48.116;11.608;2022-09-12T09:31:00;2.10;;;2.00;;
11398;SDS011;5755;48.116;11.608;2022-09-12T09:33:28;2.28;;;2.10;;
11398;SDS011;5755;48.116;11.608;2022-09-12T09:36:01;2.10;;;2.00;;
11398;SDS011;5755;48.116;11.608;2022-09-12T09:38:40;1.98;;;1.88;;
11398;SDS011;5755;48.116;11.608;2022-09-12T09:41:30;2.30;;;2.10;;
11398;SDS011;5755;48.116;11.608;2022-09-12T09:44:13;2.42;;;2.08;;
11398;SDS011;5755;48.116;11.608;2022-09-12T09:46:42;2.53;;;2.40;;
11398;SDS011;5755;48.116;11.608;2022-09-12T09:49:09;2.17;;;2.00;;
11398;SDS011;5755;48.116;11.608;2022-09-12T09:51:39;2.60;;;2.40;;
11398;SDS011;5755;48.116;11.608;2022-09-12T09:54:09;2.28;;;2.10;;
11398;SDS011;5755;48.116;11.608;2022-09-12T09:56:43;2.30;;;2.20;;
11398;SDS011;5755;48.116;11.608;2022-09-12T09:59:11;2.60;;;2.50;;
11398;SDS011;5755;48.116;11.608;2022-09-12T10:01:45;4.38;;;2.50;;
11398;SDS011;5755;48.116;11.608;2022-09-12T10:04:19;2.83;;;2.30;;
11398;SDS011;5755;48.116;11.608;2022-09-12T10:06:52;3.63;;;2.50;;
11398;SDS011;5755;48.116;11.608;2022-09-12T10:09:22;2.55;;;2.35;;
11398;SDS011;5755;48.116;11.608;2022-09-12T10:11:51;3.15;;;2.47;;
11398;SDS011;5755;48.116;11.608;2022-09-12T10:14:30;3.80;;;2.33;;
11398;SDS011;5755;48.116;11.608;2022-09-12T10:17:02;2.20;;;2.10;;
11398;SDS011;5755;48.116;11.608;2022-09-12T10:19:46;2.20;;;2.10;;
11398;SDS011;5755;48.116;11.608;2022-09-12T10:22:14;2.50;;;2.30;;
11398;SDS011;5755;48.116;11.608;2022-09-12T10:24:45;2.47;;;2.30;;
11398;SDS011;5755;48.116;11.608;2022-09-12T10:27:15;2.65;;;2.20;;
11398;SDS011;5755;48.116;11.608;2022-09-12T10:29:46;2.70;;;2.25;;
11398;SDS011;5755;48.116;11.608;2022-09-12T10:32:21;2.40;;;2.20;;
11398;SDS011;5755;48.116;11.608;2022-09-12T10:34:53;2.45;;;2.28;;
11398;SDS011;5755;48.116;11.608;2022-09-12T10:37:23;2.15;;;2.05;;
11398;SDS011;5755;48.116;11.608;2022-09-12T10:39:54;3.72;;;2.15;;
11398;SDS011;5755;48.116;11.608;2022-09-12T10:45:17;6.07;;;2.28;;
11398;SDS011;5755;48.116;11.608;2022-09-12T10:47:47;2.03;;;1.92;;
11398;SDS011;5755;48.116;11.608;2022-09-12T10:50:22;2.28;;;2.08;;
11398;SDS011;5755;48.116;11.608;2022-09-12T10:52:52;2.60;;;2.08;;
11398;SDS011;5755;48.116;11.608;2022-09-12T10:55:29;2.35;;;2.17;;
11398;SDS011;5755;48.116;11.608;2022-09-12T10:58:02;3.67;;;1.80;;
11398;SDS011;5755;48.116;11.608;2022-09-12T11:00:46;2.08;;;1.98;;
11398;SDS011;5755;48.116;11.608;2022-09-12T11:03:27;2.35;;;1.92;;
11398;SDS011;5755;48.116;11.608;2022-09-12T11:06:02;1.95;;;1.85;;
11398;SDS011;5755;48.116;11.608;2022-09-12T11:11:31;1.85;;;1.75;;
11398;SDS011;5755;48.116;11.608;2022-09-12T11:20:30;1.60;;;1.50;;
11398;SDS011;5755;48.116;11.608;2022-09-12T11:26:12;2.80;;;2.00;;
11398;SDS011;5755;48.116;11.608;2022-09-12T11:28:59;2.20;;;1.95;;
11398;SDS011;5755;48.116;11.608;2022-09-12T11:31:50;2.15;;;1.90;;
11398;SDS011;5755;48.116;11.608;2022-09-12T11:34:35;2.00;;;1.90;;
11398;SDS011;5755;48.116;11.608;2022-09-12T11:37:29;2.80;;;1.83;;
11398;SDS011;5755;48.116;11.608;2022-09-12T11:42:58;1.70;;;1.60;;
11398;SDS011;5755;48.116;11.608;2022-09-12T11:45:40;1.95;;;1.85;;
11398;SDS011;5755;48.116;11.608;2022-09-12T11:48:24;2.03;;;1.83;;
11398;SDS011;5755;48.116;11.608;2022-09-12T11:51:01;1.90;;;1.77;;
11398;SDS011;5755;48.116;11.608;2022-09-12T11:53:53;2.22;;;1.90;;
11398;SDS011;5755;48.116;11.608;2022-09-12T11:56:40;2.20;;;1.88;;
11398;SDS011;5755;48.116;11.608;2022-09-12T11:59:17;2.10;;;1.90;;
11398;SDS011;5755;48.116;11.608;2022-09-12T12:01:57;2.15;;;1.75;;
11398;SDS011;5755;48.116;11.608;2022-09-12T12:04:35;2.47;;;1.70;;
11398;SDS011;5755;48.116;11.608;2022-09-12T12:07:05;1.70;;;1.60;;
11398;SDS011;5755;48.116;11.608;2022-09-12T12:09:53;1.90;;;1.80;;
11398;SDS011;5755;48.116;11.608;2022-09-12T12:12:21;2.60;;;1.77;;
11398;SDS011;5755;48.116;11.608;2022-09-12T12:17:45;2.63;;;2.00;;
11398;SDS011;5755;48.116;11.608;2022-09-12T12:20:27;1.60;;;1.50;;
11398;SDS011;5755;48.116;11.608;2022-09-12T12:22:55;2.10;;;2.00;;
11398;SDS011;5755;48.116;11.608;2022-09-12T12:31:27;2.05;;;1.90;;
11398;SDS011;5755;48.116;11.608;2022-09-12T12:34:02;2.47;;;1.67;;
11398;SDS011;5755;48.116;11.608;2022-09-12T12:36:45;2.30;;;1.80;;
11398;SDS011;5755;48.116;11.608;2022-09-12T12:48:46;2.17;;;1.70;;
11398;SDS011;5755;48.116;11.608;2022-09-12T12:57:28;3.83;;;1.80;;
11398;SDS011;5755;48.116;11.608;2022-09-12T13:00:06;2.47;;;1.80;;
11398;SDS011;5755;48.116;11.608;2022-09-12T13:05:54;1.80;;;1.70;;
11398;SDS011;5755;48.116;11.608;2022-09-12T13:11:34;1.75;;;1.65;;
11398;SDS011;5755;48.116;11.608;2022-09-12T13:17:13;3.38;;;2.55;;
11398;SDS011;5755;48.116;11.608;2022-09-12T13:19:45;3.40;;;1.90;;
11398;SDS011;5755;48.116;11.608;2022-09-12T13:22:17;3.90;;;1.50;;
11398;SDS011;5755;48.116;11.608;2022-09-12T13:24:49;2.45;;;1.58;;
11398;SDS011;5755;48.116;11.608;2022-09-12T13:27:22;3.05;;;2.85;;
11398;SDS011;5755;48.116;11.608;2022-09-12T13:30:04;4.78;;;3.45;;
11398;SDS011;5755;48.116;11.608;2022-09-12T13:32:40;1.90;;;1.80;;
11398;SDS011;5755;48.116;11.608;2022-09-12T13:35:18;2.97;;;1.75;;
11398;SDS011;5755;48.116;11.608;2022-09-12T13:37:53;1.80;;;1.70;;
11398;SDS011;5755;48.116;11.608;2022-09-12T13:40:29;2.13;;;1.92;;
11398;SDS011;5755;48.116;11.608;2022-09-12T13:43:06;1.92;;;1.83;;
11398;SDS011;5755;48.116;11.608;2022-09-12T13:45:45;2.17;;;1.60;;
11398;SDS011;5755;48.116;11.608;2022-09-12T13:48:14;1.75;;;1.65;;
11398;SDS011;5755;48.116;11.608;2022-09-12T13:50:49;1.70;;;1.60;;
11398;SDS011;5755;48.116;11.608;2022-09-12T14:01:42;1.73;;;1.63;;
11398;SDS011;5755;48.116;11.608;2022-09-12T14:04:22;1.80;;;1.70;;
11398;SDS011;5755;48.116;11.608;2022-09-12T14:07:09;1.73;;;1.63;;
11398;SDS011;5755;48.116;11.608;2022-09-12T14:09:42;3.42;;;2.72;;
11398;SDS011;5755;48.116;11.608;2022-09-12T14:12:28;2.72;;;1.88;;
11398;SDS011;5755;48.116;11.608;2022-09-12T14:18:04;2.28;;;1.60;;
11398;SDS011;5755;48.116;11.608;2022-09-12T14:20:34;4.07;;;3.67;;
11398;SDS011;5755;48.116;11.608;2022-09-12T14:23:24;5.82;;;3.45;;
11398;SDS011;5755;48.116;11.608;2022-09-12T14:26:01;2.25;;;1.83;;
11398;SDS011;5755;48.116;11.608;2022-09-12T14:28:39;3.90;;;3.50;;
11398;SDS011;5755;48.116;11.608;2022-09-12T14:34:21;1.83;;;1.73;;
11398;SDS011;5755;48.116;11.608;2022-09-12T14:36:52;4.03;;;3.30;;
11398;SDS011;5755;48.116;11.608;2022-09-12T14:39:22;4.00;;;2.13;;
11398;SDS011;5755;48.116;11.608;2022-09-12T14:42:01;2.00;;;1.50;;
11398;SDS011;5755;48.116;11.608;2022-09-12T14:44:33;2.50;;;2.30;;
11398;SDS011;5755;48.116;11.608;2022-09-12T14:47:18;1.70;;;1.60;;
11398;SDS011;5755;48.116;11.608;2022-09-12T14:50:03;2.67;;;1.63;;
11398;SDS011;5755;48.116;11.608;2022-09-12T14:52:41;3.00;;;2.70;;
11398;SDS011;5755;48.116;11.608;2022-09-12T15:03:57;2.05;;;1.70;;
11398;SDS011;5755;48.116;11.608;2022-09-12T15:06:28;1.90;;;1.77;;
11398;SDS011;5755;48.116;11.608;2022-09-12T15:11:51;2.15;;;1.58;;
11398;SDS011;5755;48.116;11.608;2022-09-12T15:14:29;1.83;;;1.70;;
11398;SDS011;5755;48.116;11.608;2022-09-12T15:16:57;2.25;;;2.05;;
11398;SDS011;5755;48.116;11.608;2022-09-12T15:22:18;2.30;;;1.98;;
11398;SDS011;5755;48.116;11.608;2022-09-12T15:24:47;2.67;;;1.70;;
11398;SDS011;5755;48.116;11.608;2022-09-12T15:27:15;3.85;;;3.45;;
11398;SDS011;5755;48.116;11.608;2022-09-12T15:29:47;2.00;;;1.90;;
11398;SDS011;5755;48.116;11.608;2022-09-12T15:32:21;3.80;;;2.42;;
11398;SDS011;5755;48.116;11.608;2022-09-12T15:34:51;3.25;;;2.72;;
11398;SDS011;5755;48.116;11.608;2022-09-12T15:37:27;2.40;;;1.88;;
11398;SDS011;5755;48.116;11.608;2022-09-12T15:40:04;1.88;;;1.60;;
11398;SDS011;5755;48.116;11.608;2022-09-12T15:45:15;2.28;;;2.08;;
11398;SDS011;5755;48.116;11.608;2022-09-12T15:47:45;1.73;;;1.63;;
11398;SDS011;5755;48.116;11.608;2022-09-12T15:50:15;2.45;;;1.90;;
11398;SDS011;5755;48.116;11.608;2022-09-12T15:52:42;2.25;;;1.65;;
11398;SDS011;5755;48.116;11.608;2022-09-12T15:55:10;1.60;;;1.50;;
11398;SDS011;5755;48.116;11.608;2022-09-12T15:57:57;2.13;;;1.80;;
11398;SDS011;5755;48.116;11.608;2022-09-12T16:00:29;1.63;;;1.52;;
11398;SDS011;5755;48.116;11.608;2022-09-12T16:02:57;6.78;;;6.10;;
11398;SDS011;5755;48.116;11.608;2022-09-12T16:05:45;4.57;;;4.18;;
11398;SDS011;5755;48.116;11.608;2022-09-12T16:08:12;1.90;;;1.80;;
11398;SDS011;5755;48.116;11.608;2022-09-12T16:10:45;2.65;;;2.10;;
11398;SDS011;5755;48.116;11.608;2022-09-12T16:13:17;2.42;;;2.13;;
11398;SDS011;5755;48.116;11.608;2022-09-12T16:15:45;84.97;;;62.22;;
11398;SDS011;5755;48.116;11.608;2022-09-12T16:18:15;14.98;;;11.55;;
11398;SDS011;5755;48.116;11.608;2022-09-12T16:20:45;2.20;;;2.00;;
11398;SDS011;5755;48.116;11.608;2022-09-12T16:23:27;3.38;;;3.08;;
11398;SDS011;5755;48.116;11.608;2022-09-12T16:25:58;6.18;;;4.38;;
11398;SDS011;5755;48.116;11.608;2022-09-12T16:28:39;2.38;;;1.95;;
11398;SDS011;5755;48.116;11.608;2022-09-12T16:31:10;3.38;;;2.45;;
11398;SDS011;5755;48.116;11.608;2022-09-12T16:33:45;2.17;;;2.00;;
11398;SDS011;5755;48.116;11.608;2022-09-12T16:36:16;2.33;;;1.60;;
11398;SDS011;5755;48.116;11.608;2022-09-12T16:38:45;3.40;;;3.10;;
11398;SDS011;5755;48.116;11.608;2022-09-12T16:41:27;1.80;;;1.70;;
11398;SDS011;5755;48.116;11.608;2022-09-12T16:43:54;28.48;;;25.50;;
11398;SDS011;5755;48.116;11.608;2022-09-12T16:46:23;3.15;;;2.70;;
11398;SDS011;5755;48.116;11.608;2022-09-12T16:48:52;16.92;;;14.43;;
11398;SDS011;5755;48.116;11.608;2022-09-12T16:51:23;75.63;;;60.35;;
11398;SDS011;5755;48.116;11.608;2022-09-12T16:53:52;3.53;;;2.20;;
11398;SDS011;5755;48.116;11.608;2022-09-12T16:56:19;35.83;;;31.33;;
11398;SDS011;5755;48.116;11.608;2022-09-12T16:58:52;78.65;;;67.88;;
11398;SDS011;5755;48.116;11.608;2022-09-12T17:01:19;4.63;;;2.55;;
11398;SDS011;5755;48.116;11.608;2022-09-12T17:03:50;11.07;;;9.85;;
11398;SDS011;5755;48.116;11.608;2022-09-12T17:06:18;26.02;;;23.23;;
11398;SDS011;5755;48.116;11.608;2022-09-12T17:08:52;33.55;;;28.98;;
11398;SDS011;5755;48.116;11.608;2022-09-12T17:11:21;6.40;;;5.72;;
11398;SDS011;5755;48.116;11.608;2022-09-12T17:13:51;94.28;;;74.15;;
11398;SDS011;5755;48.116;11.608;2022-09-12T17:16:19;81.70;;;66.20;;
11398;SDS011;5755;48.116;11.608;2022-09-12T17:18:59;163.18;;;129.68;;
11398;SDS011;5755;48.116;11.608;2022-09-12T17:21:27;121.53;;;103.00;;
11398;SDS011;5755;48.116;11.608;2022-09-12T17:26:54;26.10;;;20.63;;
11398;SDS011;5755;48.116;11.608;2022-09-12T17:29:39;63.97;;;54.72;;
11398;SDS011;5755;48.116;11.608;2022-09-12T17:32:06;21.85;;;19.50;;
11398;SDS011;5755;48.116;11.608;2022-09-12T17:34:41;23.88;;;19.92;;